sensor_id;sensor_type;location;lat;lon;timestamp;temperature;humidity
56300;DHT22;42209;6.376;-10.782;2023-05-07T00:00:04;23.30;51.10
56300;DHT22;42209;6.376;-10.782;2023-05-07T00:02:34;23.10;49.50
56300;DHT22;42209;6.376;-10.782;2023-05-07T00:05:04;22.90;48.10
56300;DHT22;42209;6.376;-10.782;2023-05-07T00:07:32;22.90;47.80
56300;DHT22;42209;6.376;-10.782;2023-05-07T00:10:00;22.80;46.60
56300;DHT22;42209;6.376;-10.782;2023-05-07T00:12:28;22.70;45.70
56300;DHT22;42209;6.376;-10.782;2023-05-07T00:14:57;22.70;45.20
56300;DHT22;42209;6.376;-10.782;2023-05-07T00:17:25;22.60;44.40
56300;DHT22;42209;6.376;-10.782;2023-05-07T00:19:53;22.60;44.10
56300;DHT22;42209;6.376;-10.782;2023-05-07T00:22:22;22.50;43.70
56300;DHT22;42209;6.376;-10.782;2023-05-07T00:24:50;22.50;43.20
56300;DHT22;42209;6.376;-10.782;2023-05-07T00:27:18;22.50;43.00
56300;DHT22;42209;6.376;-10.782;2023-05-07T00:29:47;22.40;42.60
56300;DHT22;42209;6.376;-10.782;2023-05-07T00:32:15;22.50;42.40
56300;DHT22;42209;6.376;-10.782;2023-05-07T00:34:44;22.40;41.90
56300;DHT22;42209;6.376;-10.782;2023-05-07T00:37:12;22.40;41.70
56300;DHT22;42209;6.376;-10.782;2023-05-07T00:39:40;22.40;41.80
56300;DHT22;42209;6.376;-10.782;2023-05-07T00:42:09;22.40;41.50
56300;DHT22;42209;6.376;-10.782;2023-05-07T00:44:37;22.30;41.50
56300;DHT22;42209;6.376;-10.782;2023-05-07T00:47:06;22.50;49.40
56300;DHT22;42209;6.376;-10.782;2023-05-07T00:49:44;22.70;51.80
56300;DHT22;42209;6.376;-10.782;2023-05-07T00:52:16;22.90;54.40
56300;DHT22;42209;6.376;-10.782;2023-05-07T00:54:45;22.90;56.40
56300;DHT22;42209;6.376;-10.782;2023-05-07T00:57:13;23.10;57.80
56300;DHT22;42209;6.376;-10.782;2023-05-07T00:59:42;23.20;59.70
56300;DHT22;42209;6.376;-10.782;2023-05-07T01:02:11;23.30;59.30
56300;DHT22;42209;6.376;-10.782;2023-05-07T01:04:39;23.20;53.60
56300;DHT22;42209;6.376;-10.782;2023-05-07T01:07:08;22.90;51.10
56300;DHT22;42209;6.376;-10.782;2023-05-07T01:09:37;22.80;49.80
56300;DHT22;42209;6.376;-10.782;2023-05-07T01:12:07;22.70;49.00
56300;DHT22;42209;6.376;-10.782;2023-05-07T01:14:35;22.60;47.70
56300;DHT22;42209;6.376;-10.782;2023-05-07T01:17:04;22.50;46.50
56300;DHT22;42209;6.376;-10.782;2023-05-07T01:19:32;22.50;46.00
56300;DHT22;42209;6.376;-10.782;2023-05-07T01:22:08;22.40;45.40
56300;DHT22;42209;6.376;-10.782;2023-05-07T01:24:46;22.40;44.50
56300;DHT22;42209;6.376;-10.782;2023-05-07T01:27:16;22.40;43.80
56300;DHT22;42209;6.376;-10.782;2023-05-07T01:29:46;22.30;43.50
56300;DHT22;42209;6.376;-10.782;2023-05-07T01:32:22;22.30;43.10
56300;DHT22;42209;6.376;-10.782;2023-05-07T01:34:52;22.30;42.50
56300;DHT22;42209;6.376;-10.782;2023-05-07T01:37:21;22.30;42.40
56300;DHT22;42209;6.376;-10.782;2023-05-07T01:39:49;22.20;41.80
56300;DHT22;42209;6.376;-10.782;2023-05-07T01:42:18;22.20;41.70
56300;DHT22;42209;6.376;-10.782;2023-05-07T01:44:46;22.20;42.50
56300;DHT22;42209;6.376;-10.782;2023-05-07T01:47:15;22.30;49.10
56300;DHT22;42209;6.376;-10.782;2023-05-07T01:49:44;22.50;53.00
56300;DHT22;42209;6.376;-10.782;2023-05-07T01:52:12;22.70;55.20
56300;DHT22;42209;6.376;-10.782;2023-05-07T01:54:40;22.80;57.50
56300;DHT22;42209;6.376;-10.782;2023-05-07T01:57:09;22.90;59.00
56300;DHT22;42209;6.376;-10.782;2023-05-07T01:59:37;23.10;60.90
56300;DHT22;42209;6.376;-10.782;2023-05-07T02:02:05;23.20;61.60
56300;DHT22;42209;6.376;-10.782;2023-05-07T02:04:36;23.20;56.60
56300;DHT22;42209;6.376;-10.782;2023-05-07T02:07:04;22.90;53.50
56300;DHT22;42209;6.376;-10.782;2023-05-07T02:09:33;22.80;52.10
56300;DHT22;42209;6.376;-10.782;2023-05-07T02:12:02;22.70;50.60
56300;DHT22;42209;6.376;-10.782;2023-05-07T02:14:30;22.60;49.50
56300;DHT22;42209;6.376;-10.782;2023-05-07T02:16:58;22.50;48.20
56300;DHT22;42209;6.376;-10.782;2023-05-07T02:19:27;22.50;47.40
56300;DHT22;42209;6.376;-10.782;2023-05-07T02:21:55;22.40;46.60
56300;DHT22;42209;6.376;-10.782;2023-05-07T02:24:23;22.40;45.80
56300;DHT22;42209;6.376;-10.782;2023-05-07T02:26:52;22.30;45.00
56300;DHT22;42209;6.376;-10.782;2023-05-07T02:29:20;22.30;44.50
56300;DHT22;42209;6.376;-10.782;2023-05-07T02:31:49;22.20;44.00
56300;DHT22;42209;6.376;-10.782;2023-05-07T02:34:17;22.20;43.60
56300;DHT22;42209;6.376;-10.782;2023-05-07T02:36:46;22.30;45.80
56300;DHT22;42209;6.376;-10.782;2023-05-07T02:39:18;22.40;51.70
56300;DHT22;42209;6.376;-10.782;2023-05-07T02:41:46;22.50;54.40
56300;DHT22;42209;6.376;-10.782;2023-05-07T02:44:15;22.70;56.60
56300;DHT22;42209;6.376;-10.782;2023-05-07T02:46:46;22.80;58.60
56300;DHT22;42209;6.376;-10.782;2023-05-07T02:49:14;22.90;60.20
56300;DHT22;42209;6.376;-10.782;2023-05-07T02:51:42;23.10;61.30
56300;DHT22;42209;6.376;-10.782;2023-05-07T02:54:17;23.20;62.40
56300;DHT22;42209;6.376;-10.782;2023-05-07T02:56:46;23.20;57.50
56300;DHT22;42209;6.376;-10.782;2023-05-07T02:59:14;22.90;53.90
56300;DHT22;42209;6.376;-10.782;2023-05-07T03:01:42;22.80;52.00
56300;DHT22;42209;6.376;-10.782;2023-05-07T03:04:11;22.60;50.60
56300;DHT22;42209;6.376;-10.782;2023-05-07T03:06:40;22.50;49.60
56300;DHT22;42209;6.376;-10.782;2023-05-07T03:09:08;22.50;49.00
56300;DHT22;42209;6.376;-10.782;2023-05-07T03:11:37;22.40;47.50
56300;DHT22;42209;6.376;-10.782;2023-05-07T03:14:05;22.30;46.60
56300;DHT22;42209;6.376;-10.782;2023-05-07T03:16:33;22.30;45.80
56300;DHT22;42209;6.376;-10.782;2023-05-07T03:19:02;22.30;45.20
56300;DHT22;42209;6.376;-10.782;2023-05-07T03:21:30;22.30;44.60
56300;DHT22;42209;6.376;-10.782;2023-05-07T03:23:58;22.10;43.90
56300;DHT22;42209;6.376;-10.782;2023-05-07T03:26:27;22.30;48.00
56300;DHT22;42209;6.376;-10.782;2023-05-07T03:28:55;22.40;52.90
56300;DHT22;42209;6.376;-10.782;2023-05-07T03:31:24;22.60;55.20
56300;DHT22;42209;6.376;-10.782;2023-05-07T03:33:53;22.70;57.50
56300;DHT22;42209;6.376;-10.782;2023-05-07T03:36:22;22.80;59.30
56300;DHT22;42209;6.376;-10.782;2023-05-07T03:38:50;22.90;60.70
56300;DHT22;42209;6.376;-10.782;2023-05-07T03:41:22;23.00;62.00
56300;DHT22;42209;6.376;-10.782;2023-05-07T03:43:51;23.10;63.00
56300;DHT22;42209;6.376;-10.782;2023-05-07T03:46:20;23.10;57.80
56300;DHT22;42209;6.376;-10.782;2023-05-07T03:48:48;22.90;54.20
56300;DHT22;42209;6.376;-10.782;2023-05-07T03:51:18;22.70;52.20
56300;DHT22;42209;6.376;-10.782;2023-05-07T03:53:47;22.50;50.70
56300;DHT22;42209;6.376;-10.782;2023-05-07T03:56:16;22.50;49.50
56300;DHT22;42209;6.376;-10.782;2023-05-07T03:58:47;22.40;48.60
56300;DHT22;42209;6.376;-10.782;2023-05-07T04:01:16;22.40;52.40
56300;DHT22;42209;6.376;-10.782;2023-05-07T04:03:44;22.60;56.90
56300;DHT22;42209;6.376;-10.782;2023-05-07T04:06:13;22.70;58.80
56300;DHT22;42209;6.376;-10.782;2023-05-07T04:08:44;22.90;60.60
56300;DHT22;42209;6.376;-10.782;2023-05-07T04:11:13;23.00;62.30
56300;DHT22;42209;6.376;-10.782;2023-05-07T04:13:41;23.10;63.00
56300;DHT22;42209;6.376;-10.782;2023-05-07T04:16:10;23.20;64.20
56300;DHT22;42209;6.376;-10.782;2023-05-07T04:18:38;23.10;58.50
56300;DHT22;42209;6.376;-10.782;2023-05-07T04:21:17;22.90;55.00
56300;DHT22;42209;6.376;-10.782;2023-05-07T04:23:47;22.80;53.40
56300;DHT22;42209;6.376;-10.782;2023-05-07T04:26:16;22.60;51.50
56300;DHT22;42209;6.376;-10.782;2023-05-07T04:28:45;22.50;50.30
56300;DHT22;42209;6.376;-10.782;2023-05-07T04:31:15;22.40;49.20
56300;DHT22;42209;6.376;-10.782;2023-05-07T04:33:45;22.40;48.40
56300;DHT22;42209;6.376;-10.782;2023-05-07T04:36:14;22.40;47.30
56300;DHT22;42209;6.376;-10.782;2023-05-07T04:38:49;22.30;46.60
56300;DHT22;42209;6.376;-10.782;2023-05-07T04:41:18;22.20;45.90
56300;DHT22;42209;6.376;-10.782;2023-05-07T04:43:47;22.20;45.20
56300;DHT22;42209;6.376;-10.782;2023-05-07T04:46:16;22.10;46.00
56300;DHT22;42209;6.376;-10.782;2023-05-07T04:48:45;22.10;46.20
56300;DHT22;42209;6.376;-10.782;2023-05-07T04:51:14;22.20;45.70
56300;DHT22;42209;6.376;-10.782;2023-05-07T04:53:42;22.10;45.20
56300;DHT22;42209;6.376;-10.782;2023-05-07T04:56:10;22.10;44.10
56300;DHT22;42209;6.376;-10.782;2023-05-07T04:58:42;22.10;44.10
56300;DHT22;42209;6.376;-10.782;2023-05-07T05:01:10;22.10;43.20
56300;DHT22;42209;6.376;-10.782;2023-05-07T05:03:39;22.10;49.10
56300;DHT22;42209;6.376;-10.782;2023-05-07T05:06:08;22.30;52.80
56300;DHT22;42209;6.376;-10.782;2023-05-07T05:08:36;22.40;55.10
56300;DHT22;42209;6.376;-10.782;2023-05-07T05:11:05;22.60;57.30
56300;DHT22;42209;6.376;-10.782;2023-05-07T05:13:35;22.70;58.80
56300;DHT22;42209;6.376;-10.782;2023-05-07T05:16:15;22.80;60.30
56300;DHT22;42209;6.376;-10.782;2023-05-07T05:18:44;22.90;62.60
56300;DHT22;42209;6.376;-10.782;2023-05-07T05:21:15;23.00;63.80
56300;DHT22;42209;6.376;-10.782;2023-05-07T05:23:46;23.10;60.00
56300;DHT22;42209;6.376;-10.782;2023-05-07T05:26:19;22.90;56.20
56300;DHT22;42209;6.376;-10.782;2023-05-07T05:28:47;22.70;53.80
56300;DHT22;42209;6.376;-10.782;2023-05-07T05:31:18;22.50;52.50
56300;DHT22;42209;6.376;-10.782;2023-05-07T05:33:48;22.50;57.10
56300;DHT22;42209;6.376;-10.782;2023-05-07T05:36:17;22.60;60.70
56300;DHT22;42209;6.376;-10.782;2023-05-07T05:38:47;22.70;62.60
56300;DHT22;42209;6.376;-10.782;2023-05-07T05:41:16;22.90;63.60
56300;DHT22;42209;6.376;-10.782;2023-05-07T05:43:44;23.00;65.00
56300;DHT22;42209;6.376;-10.782;2023-05-07T05:46:13;23.10;65.80
56300;DHT22;42209;6.376;-10.782;2023-05-07T05:48:41;23.20;64.20
56300;DHT22;42209;6.376;-10.782;2023-05-07T05:51:10;22.90;58.50
56300;DHT22;42209;6.376;-10.782;2023-05-07T05:53:39;22.80;55.70
56300;DHT22;42209;6.376;-10.782;2023-05-07T05:56:08;22.60;54.00
56300;DHT22;42209;6.376;-10.782;2023-05-07T05:58:40;22.50;57.00
56300;DHT22;42209;6.376;-10.782;2023-05-07T06:01:08;22.60;60.90
56300;DHT22;42209;6.376;-10.782;2023-05-07T06:03:37;22.80;63.10
56300;DHT22;42209;6.376;-10.782;2023-05-07T06:06:11;22.90;64.50
56300;DHT22;42209;6.376;-10.782;2023-05-07T06:08:41;23.10;65.90
56300;DHT22;42209;6.376;-10.782;2023-05-07T06:11:12;23.20;67.30
56300;DHT22;42209;6.376;-10.782;2023-05-07T06:13:44;23.30;66.40
56300;DHT22;42209;6.376;-10.782;2023-05-07T06:16:12;23.10;59.80
56300;DHT22;42209;6.376;-10.782;2023-05-07T06:18:41;22.90;57.10
56300;DHT22;42209;6.376;-10.782;2023-05-07T06:21:10;22.70;54.80
56300;DHT22;42209;6.376;-10.782;2023-05-07T06:23:38;22.60;53.20
56300;DHT22;42209;6.376;-10.782;2023-05-07T06:26:07;22.50;52.00
56300;DHT22;42209;6.376;-10.782;2023-05-07T06:28:40;22.40;50.60
56300;DHT22;42209;6.376;-10.782;2023-05-07T06:31:15;22.30;49.50
56300;DHT22;42209;6.376;-10.782;2023-05-07T06:33:50;22.30;48.50
56300;DHT22;42209;6.376;-10.782;2023-05-07T06:36:19;22.20;47.70
56300;DHT22;42209;6.376;-10.782;2023-05-07T06:38:47;22.20;46.90
56300;DHT22;42209;6.376;-10.782;2023-05-07T06:41:16;22.10;50.20
56300;DHT22;42209;6.376;-10.782;2023-05-07T06:43:44;22.30;54.90
56300;DHT22;42209;6.376;-10.782;2023-05-07T06:46:30;22.50;58.50
56300;DHT22;42209;6.376;-10.782;2023-05-07T06:48:59;22.70;60.50
56300;DHT22;42209;6.376;-10.782;2023-05-07T06:51:28;22.80;61.90
56300;DHT22;42209;6.376;-10.782;2023-05-07T06:54:01;22.90;63.50
56300;DHT22;42209;6.376;-10.782;2023-05-07T06:56:30;23.00;64.00
56300;DHT22;42209;6.376;-10.782;2023-05-07T06:59:00;23.10;65.60
56300;DHT22;42209;6.376;-10.782;2023-05-07T07:01:33;23.20;63.90
56300;DHT22;42209;6.376;-10.782;2023-05-07T07:04:03;22.90;57.60
56300;DHT22;42209;6.376;-10.782;2023-05-07T07:06:33;22.70;54.90
56300;DHT22;42209;6.376;-10.782;2023-05-07T07:09:04;22.50;53.30
56300;DHT22;42209;6.376;-10.782;2023-05-07T07:11:32;22.50;55.00
56300;DHT22;42209;6.376;-10.782;2023-05-07T07:14:00;22.60;60.30
56300;DHT22;42209;6.376;-10.782;2023-05-07T07:16:32;22.70;62.20
56300;DHT22;42209;6.376;-10.782;2023-05-07T07:19:01;22.80;63.90
56300;DHT22;42209;6.376;-10.782;2023-05-07T07:21:29;23.00;65.40
56300;DHT22;42209;6.376;-10.782;2023-05-07T07:23:58;23.10;66.10
56300;DHT22;42209;6.376;-10.782;2023-05-07T07:26:26;23.20;66.70
56300;DHT22;42209;6.376;-10.782;2023-05-07T07:28:55;23.20;62.30
56300;DHT22;42209;6.376;-10.782;2023-05-07T07:31:24;22.90;57.90
56300;DHT22;42209;6.376;-10.782;2023-05-07T07:33:52;22.70;55.50
56300;DHT22;42209;6.376;-10.782;2023-05-07T07:36:20;22.60;54.10
56300;DHT22;42209;6.376;-10.782;2023-05-07T07:38:55;22.50;54.20
56300;DHT22;42209;6.376;-10.782;2023-05-07T07:41:24;22.50;60.00
56300;DHT22;42209;6.376;-10.782;2023-05-07T07:43:52;22.70;62.60
56300;DHT22;42209;6.376;-10.782;2023-05-07T07:46:21;22.90;64.20
56300;DHT22;42209;6.376;-10.782;2023-05-07T07:48:49;22.90;65.60
56300;DHT22;42209;6.376;-10.782;2023-05-07T07:51:18;23.10;66.60
56300;DHT22;42209;6.376;-10.782;2023-05-07T07:53:46;23.20;67.60
56300;DHT22;42209;6.376;-10.782;2023-05-07T07:56:15;23.20;64.30
56300;DHT22;42209;6.376;-10.782;2023-05-07T07:58:43;23.00;59.30
56300;DHT22;42209;6.376;-10.782;2023-05-07T08:01:12;22.80;56.70
56300;DHT22;42209;6.376;-10.782;2023-05-07T08:03:42;22.60;54.90
56300;DHT22;42209;6.376;-10.782;2023-05-07T08:06:12;22.50;53.30
56300;DHT22;42209;6.376;-10.782;2023-05-07T08:08:42;22.50;51.90
56300;DHT22;42209;6.376;-10.782;2023-05-07T08:11:10;22.40;50.80
56300;DHT22;42209;6.376;-10.782;2023-05-07T08:13:39;22.40;52.30
56300;DHT22;42209;6.376;-10.782;2023-05-07T08:16:08;22.50;58.00
56300;DHT22;42209;6.376;-10.782;2023-05-07T08:18:37;22.60;60.10
56300;DHT22;42209;6.376;-10.782;2023-05-07T08:21:05;22.80;62.60
56300;DHT22;42209;6.376;-10.782;2023-05-07T08:23:34;22.90;63.90
56300;DHT22;42209;6.376;-10.782;2023-05-07T08:26:04;23.00;64.80
56300;DHT22;42209;6.376;-10.782;2023-05-07T08:28:34;23.10;66.10
56300;DHT22;42209;6.376;-10.782;2023-05-07T08:31:02;23.10;63.20
56300;DHT22;42209;6.376;-10.782;2023-05-07T08:33:35;22.90;58.30
56300;DHT22;42209;6.376;-10.782;2023-05-07T08:36:03;22.70;55.50
56300;DHT22;42209;6.376;-10.782;2023-05-07T08:38:32;22.50;54.30
56300;DHT22;42209;6.376;-10.782;2023-05-07T08:41:00;22.50;60.80
56300;DHT22;42209;6.376;-10.782;2023-05-07T08:43:33;22.70;63.40
56300;DHT22;42209;6.376;-10.782;2023-05-07T08:46:04;22.80;64.80
56300;DHT22;42209;6.376;-10.782;2023-05-07T08:48:40;23.00;66.60
56300;DHT22;42209;6.376;-10.782;2023-05-07T08:51:15;23.10;67.90
56300;DHT22;42209;6.376;-10.782;2023-05-07T08:53:44;23.20;68.30
56300;DHT22;42209;6.376;-10.782;2023-05-07T08:56:17;23.10;61.40
56300;DHT22;42209;6.376;-10.782;2023-05-07T08:58:49;22.80;58.20
56300;DHT22;42209;6.376;-10.782;2023-05-07T09:01:18;22.70;56.30
56300;DHT22;42209;6.376;-10.782;2023-05-07T09:03:52;22.60;54.90
56300;DHT22;42209;6.376;-10.782;2023-05-07T09:06:22;22.50;53.60
56300;DHT22;42209;6.376;-10.782;2023-05-07T09:08:53;22.40;52.20
56300;DHT22;42209;6.376;-10.782;2023-05-07T09:11:25;22.30;51.30
56300;DHT22;42209;6.376;-10.782;2023-05-07T09:13:57;22.30;50.20
56300;DHT22;42209;6.376;-10.782;2023-05-07T09:16:26;22.20;49.50
56300;DHT22;42209;6.376;-10.782;2023-05-07T09:18:58;22.20;48.90
56300;DHT22;42209;6.376;-10.782;2023-05-07T09:21:28;22.20;48.10
56300;DHT22;42209;6.376;-10.782;2023-05-07T09:23:59;22.20;47.10
56300;DHT22;42209;6.376;-10.782;2023-05-07T09:26:35;22.20;46.70
56300;DHT22;42209;6.376;-10.782;2023-05-07T09:29:05;22.10;47.70
56300;DHT22;42209;6.376;-10.782;2023-05-07T09:31:37;22.20;54.60
56300;DHT22;42209;6.376;-10.782;2023-05-07T09:34:08;22.40;56.80
56300;DHT22;42209;6.376;-10.782;2023-05-07T09:36:39;22.60;59.10
56300;DHT22;42209;6.376;-10.782;2023-05-07T09:39:08;22.70;61.10
56300;DHT22;42209;6.376;-10.782;2023-05-07T09:41:46;22.80;63.00
56300;DHT22;42209;6.376;-10.782;2023-05-07T09:44:21;22.90;65.30
56300;DHT22;42209;6.376;-10.782;2023-05-07T09:46:54;22.90;66.60
56300;DHT22;42209;6.376;-10.782;2023-05-07T09:49:34;22.90;67.20
56300;DHT22;42209;6.376;-10.782;2023-05-07T09:52:07;23.00;66.90
56300;DHT22;42209;6.376;-10.782;2023-05-07T09:54:38;23.10;66.60
56300;DHT22;42209;6.376;-10.782;2023-05-07T09:57:07;23.00;61.40
56300;DHT22;42209;6.376;-10.782;2023-05-07T09:59:38;22.60;56.20
56300;DHT22;42209;6.376;-10.782;2023-05-07T10:02:11;22.40;60.10
56300;DHT22;42209;6.376;-10.782;2023-05-07T10:04:48;22.40;63.80
56300;DHT22;42209;6.376;-10.782;2023-05-07T10:07:21;22.70;66.30
56300;DHT22;42209;6.376;-10.782;2023-05-07T10:09:53;22.90;67.70
56300;DHT22;42209;6.376;-10.782;2023-05-07T10:12:30;23.00;63.30
56300;DHT22;42209;6.376;-10.782;2023-05-07T10:14:59;22.60;60.00
56300;DHT22;42209;6.376;-10.782;2023-05-07T10:17:28;22.10;58.60
56300;DHT22;42209;6.376;-10.782;2023-05-07T10:19:57;22.10;63.60
56300;DHT22;42209;6.376;-10.782;2023-05-07T10:22:25;22.40;66.90
56300;DHT22;42209;6.376;-10.782;2023-05-07T10:24:56;22.70;69.90
56300;DHT22;42209;6.376;-10.782;2023-05-07T10:27:28;22.90;72.50
56300;DHT22;42209;6.376;-10.782;2023-05-07T10:34:09;22.20;60.80
56300;DHT22;42209;6.376;-10.782;2023-05-07T10:36:38;22.40;67.20
56300;DHT22;42209;6.376;-10.782;2023-05-07T10:41:03;23.00;70.80
56300;DHT22;42209;6.376;-10.782;2023-05-07T10:43:44;23.30;73.50
56300;DHT22;42209;6.376;-10.782;2023-05-07T10:48:17;23.20;68.90
56300;DHT22;42209;6.376;-10.782;2023-05-07T10:56:25;23.70;77.70
56300;DHT22;42209;6.376;-10.782;2023-05-07T11:02:04;23.10;68.60
56300;DHT22;42209;6.376;-10.782;2023-05-07T11:04:40;22.60;65.80
56300;DHT22;42209;6.376;-10.782;2023-05-07T11:07:25;22.40;65.00
56300;DHT22;42209;6.376;-10.782;2023-05-07T11:09:59;22.30;63.50
56300;DHT22;42209;6.376;-10.782;2023-05-07T11:15:38;22.50;70.20
56300;DHT22;42209;6.376;-10.782;2023-05-07T11:18:49;23.00;73.10
56300;DHT22;42209;6.376;-10.782;2023-05-07T11:24:28;22.80;67.10
56300;DHT22;42209;6.376;-10.782;2023-05-07T11:27:00;22.60;65.20
56300;DHT22;42209;6.376;-10.782;2023-05-07T11:29:30;22.40;63.40
56300;DHT22;42209;6.376;-10.782;2023-05-07T11:32:05;22.30;62.20
56300;DHT22;42209;6.376;-10.782;2023-05-07T11:34:43;22.20;61.20
56300;DHT22;42209;6.376;-10.782;2023-05-07T11:37:17;22.50;67.60
56300;DHT22;42209;6.376;-10.782;2023-05-07T11:40:02;22.80;70.40
56300;DHT22;42209;6.376;-10.782;2023-05-07T11:42:32;23.10;69.30
56300;DHT22;42209;6.376;-10.782;2023-05-07T11:45:01;22.80;64.50
56300;DHT22;42209;6.376;-10.782;2023-05-07T11:47:33;22.60;63.10
56300;DHT22;42209;6.376;-10.782;2023-05-07T11:50:06;22.40;62.20
56300;DHT22;42209;6.376;-10.782;2023-05-07T11:52:35;22.30;62.20
56300;DHT22;42209;6.376;-10.782;2023-05-07T11:55:04;22.20;62.50
56300;DHT22;42209;6.376;-10.782;2023-05-07T11:57:33;22.20;64.50
56300;DHT22;42209;6.376;-10.782;2023-05-07T12:00:02;22.60;69.50
56300;DHT22;42209;6.376;-10.782;2023-05-07T12:02:40;23.00;72.00
56300;DHT22;42209;6.376;-10.782;2023-05-07T12:05:10;23.10;67.90
56300;DHT22;42209;6.376;-10.782;2023-05-07T12:07:40;22.80;65.80
56300;DHT22;42209;6.376;-10.782;2023-05-07T12:10:11;22.70;62.30
56300;DHT22;42209;6.376;-10.782;2023-05-07T12:12:41;22.80;60.80
56300;DHT22;42209;6.376;-10.782;2023-05-07T12:15:10;22.70;58.80
56300;DHT22;42209;6.376;-10.782;2023-05-07T12:17:39;22.70;57.80
56300;DHT22;42209;6.376;-10.782;2023-05-07T12:20:08;22.70;56.40
56300;DHT22;42209;6.376;-10.782;2023-05-07T12:22:37;22.60;55.00
56300;DHT22;42209;6.376;-10.782;2023-05-07T12:25:06;22.60;54.30
56300;DHT22;42209;6.376;-10.782;2023-05-07T12:27:37;22.60;54.40
56300;DHT22;42209;6.376;-10.782;2023-05-07T12:30:10;22.60;54.50
56300;DHT22;42209;6.376;-10.782;2023-05-07T12:32:39;22.50;53.20
56300;DHT22;42209;6.376;-10.782;2023-05-07T12:35:08;22.50;51.90
56300;DHT22;42209;6.376;-10.782;2023-05-07T12:37:37;22.50;51.90
56300;DHT22;42209;6.376;-10.782;2023-05-07T12:42:39;22.50;53.70
56300;DHT22;42209;6.376;-10.782;2023-05-07T12:45:12;22.40;54.30
56300;DHT22;42209;6.376;-10.782;2023-05-07T12:47:47;22.50;53.90
56300;DHT22;42209;6.376;-10.782;2023-05-07T12:50:16;22.40;52.80
56300;DHT22;42209;6.376;-10.782;2023-05-07T12:52:48;22.50;52.20
56300;DHT22;42209;6.376;-10.782;2023-05-07T12:55:17;22.50;51.80
56300;DHT22;42209;6.376;-10.782;2023-05-07T12:57:49;22.40;51.50
56300;DHT22;42209;6.376;-10.782;2023-05-07T13:00:31;22.40;50.50
56300;DHT22;42209;6.376;-10.782;2023-05-07T13:03:00;22.40;50.50
56300;DHT22;42209;6.376;-10.782;2023-05-07T13:05:28;22.40;50.30
56300;DHT22;42209;6.376;-10.782;2023-05-07T13:07:57;22.40;50.40
56300;DHT22;42209;6.376;-10.782;2023-05-07T13:10:26;22.30;49.80
56300;DHT22;42209;6.376;-10.782;2023-05-07T13:12:55;22.30;50.10
56300;DHT22;42209;6.376;-10.782;2023-05-07T13:15:23;22.20;49.00
56300;DHT22;42209;6.376;-10.782;2023-05-07T13:17:52;22.20;47.80
56300;DHT22;42209;6.376;-10.782;2023-05-07T13:20:21;22.20;47.90
56300;DHT22;42209;6.376;-10.782;2023-05-07T13:22:49;22.20;47.40
56300;DHT22;42209;6.376;-10.782;2023-05-07T13:25:17;22.10;47.80
56300;DHT22;42209;6.376;-10.782;2023-05-07T13:27:46;22.30;54.30
56300;DHT22;42209;6.376;-10.782;2023-05-07T13:30:29;22.40;57.80
56300;DHT22;42209;6.376;-10.782;2023-05-07T13:32:58;22.60;60.80
56300;DHT22;42209;6.376;-10.782;2023-05-07T13:35:26;22.70;63.30
56300;DHT22;42209;6.376;-10.782;2023-05-07T13:37:54;22.90;64.90
56300;DHT22;42209;6.376;-10.782;2023-05-07T13:40:23;23.00;66.60
56300;DHT22;42209;6.376;-10.782;2023-05-07T13:42:51;23.10;68.20
56300;DHT22;42209;6.376;-10.782;2023-05-07T13:45:20;23.00;62.90
56300;DHT22;42209;6.376;-10.782;2023-05-07T13:47:48;22.80;59.10
56300;DHT22;42209;6.376;-10.782;2023-05-07T13:50:17;22.60;56.60
56300;DHT22;42209;6.376;-10.782;2023-05-07T13:52:45;22.60;61.80
56300;DHT22;42209;6.376;-10.782;2023-05-07T13:55:13;22.80;64.50
56300;DHT22;42209;6.376;-10.782;2023-05-07T13:57:42;22.90;66.60
56300;DHT22;42209;6.376;-10.782;2023-05-07T14:00:11;23.10;67.90
56300;DHT22;42209;6.376;-10.782;2023-05-07T14:02:43;23.20;69.80
56300;DHT22;42209;6.376;-10.782;2023-05-07T14:05:14;23.30;69.20
56300;DHT22;42209;6.376;-10.782;2023-05-07T14:07:50;23.10;62.40
56300;DHT22;42209;6.376;-10.782;2023-05-07T14:10:20;22.90;59.20
56300;DHT22;42209;6.376;-10.782;2023-05-07T14:12:48;22.70;57.10
56300;DHT22;42209;6.376;-10.782;2023-05-07T14:15:17;22.70;62.40
56300;DHT22;42209;6.376;-10.782;2023-05-07T14:17:45;22.80;65.00
56300;DHT22;42209;6.376;-10.782;2023-05-07T14:20:14;23.00;67.20
56300;DHT22;42209;6.376;-10.782;2023-05-07T14:22:42;23.20;68.60
56300;DHT22;42209;6.376;-10.782;2023-05-07T14:25:11;23.30;69.80
56300;DHT22;42209;6.376;-10.782;2023-05-07T14:27:40;23.30;65.50
56300;DHT22;42209;6.376;-10.782;2023-05-07T14:30:08;23.10;60.60
56300;DHT22;42209;6.376;-10.782;2023-05-07T14:32:37;22.80;57.70
56300;DHT22;42209;6.376;-10.782;2023-05-07T14:35:05;22.80;62.60
56300;DHT22;42209;6.376;-10.782;2023-05-07T14:37:34;22.90;65.10
56300;DHT22;42209;6.376;-10.782;2023-05-07T14:40:02;23.10;67.00
56300;DHT22;42209;6.376;-10.782;2023-05-07T14:42:31;23.20;68.00
56300;DHT22;42209;6.376;-10.782;2023-05-07T14:45:00;23.30;68.50
56300;DHT22;42209;6.376;-10.782;2023-05-07T14:47:30;23.30;67.10
56300;DHT22;42209;6.376;-10.782;2023-05-07T14:50:00;23.10;60.00
56300;DHT22;42209;6.376;-10.782;2023-05-07T14:52:28;22.80;56.50
56300;DHT22;42209;6.376;-10.782;2023-05-07T14:54:57;22.80;61.10
56300;DHT22;42209;6.376;-10.782;2023-05-07T14:57:28;22.90;63.70
56300;DHT22;42209;6.376;-10.782;2023-05-07T14:59:59;23.10;65.20
56300;DHT22;42209;6.376;-10.782;2023-05-07T15:02:29;23.20;66.10
56300;DHT22;42209;6.376;-10.782;2023-05-07T15:04:59;23.40;64.70
56300;DHT22;42209;6.376;-10.782;2023-05-07T15:07:29;23.10;58.00
56300;DHT22;42209;6.376;-10.782;2023-05-07T15:09:59;22.80;54.90
56300;DHT22;42209;6.376;-10.782;2023-05-07T15:12:28;22.80;60.00
56300;DHT22;42209;6.376;-10.782;2023-05-07T15:14:56;22.90;63.00
56300;DHT22;42209;6.376;-10.782;2023-05-07T15:17:25;23.10;64.90
56300;DHT22;42209;6.376;-10.782;2023-05-07T15:19:53;23.20;65.10
56300;DHT22;42209;6.376;-10.782;2023-05-07T15:22:22;23.30;64.90
56300;DHT22;42209;6.376;-10.782;2023-05-07T15:24:50;23.20;59.60
56300;DHT22;42209;6.376;-10.782;2023-05-07T15:27:19;22.90;55.10
56300;DHT22;42209;6.376;-10.782;2023-05-07T15:29:47;22.70;57.00
56300;DHT22;42209;6.376;-10.782;2023-05-07T15:32:16;22.80;60.90
56300;DHT22;42209;6.376;-10.782;2023-05-07T15:34:44;23.00;63.30
56300;DHT22;42209;6.376;-10.782;2023-05-07T15:37:13;23.10;64.60
56300;DHT22;42209;6.376;-10.782;2023-05-07T15:39:41;23.30;65.20
56300;DHT22;42209;6.376;-10.782;2023-05-07T15:42:09;23.30;60.70
56300;DHT22;42209;6.376;-10.782;2023-05-07T15:44:38;23.00;56.70
56300;DHT22;42209;6.376;-10.782;2023-05-07T15:47:06;22.70;55.20
56300;DHT22;42209;6.376;-10.782;2023-05-07T15:49:35;22.80;60.30
56300;DHT22;42209;6.376;-10.782;2023-05-07T15:52:04;22.90;63.10
56300;DHT22;42209;6.376;-10.782;2023-05-07T15:54:32;23.10;65.10
56300;DHT22;42209;6.376;-10.782;2023-05-07T15:57:00;23.20;64.70